Time;durP1;ratioP1;P1;durP2;ratioP2;P2;SDS_P1;SDS_P2;PMS_P1;PMS_P2;Temp;Humidity;BMP_temperature;BMP_pressure;BME280_temperature;BME280_humidity;BME280_pressure;Samples;Min_cycle;Max_cycle;Signal;HPM_P1;HPM_P2
2022/03/26 00:00:58;;;;;;;17.38;6.97;;;;;;;;;;5095215;28;20047;-64
2022/03/26 00:03:25;;;;;;;23.70;7.85;;;;;;;;;;5106750;28;20059;-60
2022/03/26 00:05:53;;;;;;;24.92;7.53;;;;;;;;;;5075589;28;20057;-61
2022/03/26 00:08:19;;;;;;;18.77;6.20;;;;;;;;;;5067189;28;20060;-61
2022/03/26 00:10:46;;;;;;;15.82;6.63;;;;;;;;;;5061073;28;20054;-60
2022/03/26 00:13:13;;;;;;;21.02;7.10;;;;;;;;;;5068292;28;20045;-61
2022/03/26 00:15:40;;;;;;;18.38;6.40;;;;;;;;;;5061586;28;20047;-60
2022/03/26 00:18:08;;;;;;;16.88;6.85;;;;;;;;;;5068068;28;20053;-60
2022/03/26 00:20:38;;;;;;;18.27;6.55;;;;;;;;;;5076261;28;20048;-61
2022/03/26 00:23:05;;;;;;;19.48;6.63;;;;;;;;;;5089075;28;20137;-62
2022/03/26 00:25:31;;;;;;;16.17;6.85;;;;;;;;;;5082220;28;20112;-60
2022/03/26 00:27:58;;;;;;;16.98;6.18;;;;;;;;;;5086826;28;20044;-61
2022/03/26 00:30:27;;;;;;;14.77;6.13;;;;;;;;;;5081962;28;20055;-63
2022/03/26 00:32:53;;;;;;;;;;;;;;;;;;5092642;28;20053;-61
2022/03/26 00:35:21;;;;;;;17.77;6.00;;;;;;;;;;5071446;28;19920;-63
2022/03/26 00:37:48;;;;;;;19.00;6.25;;;;;;;;;;5081889;28;20052;-62
2022/03/26 00:40:14;;;;;;;14.27;5.60;;;;;;;;;;5090796;28;20075;-61
2022/03/26 00:42:41;;;;;;;14.52;6.30;;;;;;;;;;5084988;28;20051;-59
2022/03/26 00:45:08;;;;;;;14.18;5.80;;;;;;;;;;5090759;28;20059;-59
2022/03/26 00:47:35;;;;;;;14.80;5.90;;;;;;;;;;5084523;28;20052;-60
2022/03/26 00:50:02;;;;;;;16.65;6.05;;;;;;;;;;5071670;28;20056;-61
2022/03/26 00:52:30;;;;;;;15.05;6.22;;;;;;;;;;5064552;28;20102;-59
2022/03/26 00:54:57;;;;;;;21.17;7.88;;;;;;;;;;5069885;28;20086;-61
2022/03/26 00:57:26;;;;;;;21.98;7.53;;;;;;;;;;5064264;28;20056;-61
2022/03/26 00:59:53;;;;;;;24.42;7.78;;;;;;;;;;5069022;28;20123;-61
2022/03/26 01:02:19;;;;;;;16.85;5.95;;;;;;;;;;5064257;28;20131;-59
2022/03/26 01:04:46;;;;;;;21.58;7.78;;;;;;;;;;5092504;28;20040;-60
2022/03/26 01:07:13;;;;;;;15.55;6.82;;;;;;;;;;5084169;28;20052;-59
2022/03/26 01:09:41;;;;;;;20.85;8.13;;;;;;;;;;5067936;28;20052;-62
2022/03/26 01:12:09;;;;;;;15.65;5.97;;;;;;;;;;5064261;28;20048;-62
2022/03/26 01:14:36;;;;;;;25.80;8.17;;;;;;;;;;5070267;28;20040;-61
2022/03/26 01:17:03;;;;;;;26.20;9.50;;;;;;;;;;5070165;28;20047;-62
2022/03/26 01:19:30;;;;;;;19.48;6.25;;;;;;;;;;5063678;28;20052;-61
2022/03/26 01:21:56;;;;;;;14.13;6.50;;;;;;;;;;5087375;28;20048;-63
2022/03/26 01:24:23;;;;;;;15.50;6.90;;;;;;;;;;5066933;28;20051;-60
2022/03/26 01:26:51;;;;;;;14.45;6.32;;;;;;;;;;5069566;28;20075;-62
2022/03/26 01:29:19;;;;;;;13.88;5.78;;;;;;;;;;5063096;28;20129;-63
2022/03/26 01:31:45;;;;;;;20.42;7.22;;;;;;;;;;5069356;28;20057;-66
2022/03/26 01:34:12;;;;;;;17.02;6.13;;;;;;;;;;5063721;28;20056;-65
2022/03/26 01:36:38;;;;;;;19.13;6.32;;;;;;;;;;5069636;28;20048;-62
2022/03/26 01:39:05;;;;;;;15.45;7.05;;;;;;;;;;5063196;28;20063;-63
2022/03/26 01:41:33;;;;;;;16.48;6.43;;;;;;;;;;5069326;28;20159;-61
2022/03/26 01:44:01;;;;;;;19.73;8.27;;;;;;;;;;5063144;28;20075;-58
2022/03/26 01:46:28;;;;;;;16.17;6.03;;;;;;;;;;5070255;28;20060;-59
2022/03/26 01:48:54;;;;;;;16.77;6.30;;;;;;;;;;5063918;28;20057;-62
2022/03/26 01:51:23;;;;;;;16.60;6.25;;;;;;;;;;5071686;28;20061;-61
2022/03/26 01:53:51;;;;;;;17.30;6.60;;;;;;;;;;5066275;28;20048;-59
2022/03/26 01:56:18;;;;;;;17.17;6.70;;;;;;;;;;5070478;28;20072;-63
2022/03/26 01:58:45;;;;;;;16.23;6.55;;;;;;;;;;5067473;28;20052;-62
2022/03/26 02:01:13;;;;;;;19.05;6.78;;;;;;;;;;5066189;28;20056;-59
2022/03/26 02:03:40;;;;;;;18.27;7.05;;;;;;;;;;5065119;28;20122;-58
2022/03/26 02:06:06;;;;;;;18.08;6.70;;;;;;;;;;5062864;28;20045;-62
2022/03/26 02:08:33;;;;;;;18.63;6.35;;;;;;;;;;5069390;28;20055;-59
2022/03/26 02:11:02;;;;;;;15.65;6.53;;;;;;;;;;5063734;28;20048;-59
2022/03/26 02:13:28;;;;;;;;;;;;;;;;;;5069453;28;20057;-61
2022/03/26 02:15:55;;;;;;;17.05;7.00;;;;;;;;;;5061578;28;19924;-62
2022/03/26 02:18:23;;;;;;;14.80;6.38;;;;;;;;;;5068070;28;20056;-58
2022/03/26 02:20:51;;;;;;;16.93;6.70;;;;;;;;;;5070212;28;20044;-58
2022/03/26 02:23:18;;;;;;;18.33;7.45;;;;;;;;;;5088819;28;20149;-65
2022/03/26 02:25:45;;;;;;;18.67;6.55;;;;;;;;;;5074722;28;20044;-60
2022/03/26 02:28:12;;;;;;;15.80;6.57;;;;;;;;;;5079008;28;20074;-61
2022/03/26 02:30:40;;;;;;;19.77;7.38;;;;;;;;;;5082938;28;20095;-62
2022/03/26 02:33:06;;;;;;;17.75;7.15;;;;;;;;;;5089368;28;20056;-63
2022/03/26 02:35:33;;;;;;;22.70;8.38;;;;;;;;;;5082215;28;20051;-62
2022/03/26 02:38:01;;;;;;;17.13;7.57;;;;;;;;;;5088193;28;20120;-61
2022/03/26 02:40:28;;;;;;;15.50;6.55;;;;;;;;;;5083853;28;20062;-61
2022/03/26 02:42:55;;;;;;;17.48;7.25;;;;;;;;;;5068035;28;20048;-59
2022/03/26 02:45:21;;;;;;;17.88;7.10;;;;;;;;;;5072650;28;20053;-60
2022/03/26 02:47:50;;;;;;;18.92;7.35;;;;;;;;;;5060910;28;20079;-61
2022/03/26 02:50:17;;;;;;;18.15;7.95;;;;;;;;;;5067912;28;20052;-62
2022/03/26 02:52:48;;;;;;;19.95;7.40;;;;;;;;;;5062268;28;20177;-59
2022/03/26 02:55:16;;;;;;;17.92;7.75;;;;;;;;;;5067853;28;20053;-62
2022/03/26 02:57:42;;;;;;;22.75;8.77;;;;;;;;;;5062467;28;20055;-62
2022/03/26 03:00:10;;;;;;;17.77;7.88;;;;;;;;;;5067668;28;20052;-61
2022/03/26 03:02:36;;;;;;;17.17;7.18;;;;;;;;;;5074762;28;20060;-61
2022/03/26 03:05:03;;;;;;;24.00;7.22;;;;;;;;;;5072843;28;20136;-60
2022/03/26 03:07:30;;;;;;;23.38;8.55;;;;;;;;;;5061845;28;20055;-62
2022/03/26 03:09:57;;;;;;;18.55;7.30;;;;;;;;;;5098934;28;20062;-63
2022/03/26 03:12:25;;;;;;;18.13;7.28;;;;;;;;;;5095493;28;20050;-61
2022/03/26 03:14:52;;;;;;;22.17;9.02;;;;;;;;;;5058254;28;20052;-62
2022/03/26 03:17:18;;;;;;;15.00;7.15;;;;;;;;;;5046363;28;20048;-59
2022/03/26 03:19:45;;;;;;;24.13;8.77;;;;;;;;;;5067671;28;20146;-62
2022/03/26 03:22:12;;;;;;;17.58;7.55;;;;;;;;;;5061150;28;20116;-61
2022/03/26 03:24:39;;;;;;;20.10;7.82;;;;;;;;;;5049441;28;20052;-61
2022/03/26 03:27:06;;;;;;;18.20;7.28;;;;;;;;;;5049668;28;20060;-60
2022/03/26 03:29:36;;;;;;;19.83;7.70;;;;;;;;;;5060460;28;20045;-63
2022/03/26 03:32:02;;;;;;;21.92;7.95;;;;;;;;;;5067228;28;20052;-59
2022/03/26 03:34:30;;;;;;;20.77;7.77;;;;;;;;;;5045001;28;20060;-59
2022/03/26 03:36:57;;;;;;;18.88;7.97;;;;;;;;;;5047344;28;20304;-59
2022/03/26 03:39:24;;;;;;;18.02;7.47;;;;;;;;;;5042747;28;20056;-61
2022/03/26 03:41:50;;;;;;;21.02;8.38;;;;;;;;;;5047083;28;20045;-63
2022/03/26 03:44:17;;;;;;;16.65;6.95;;;;;;;;;;5054679;28;20060;-59
2022/03/26 03:46:45;;;;;;;21.63;7.43;;;;;;;;;;5067487;28;20060;-59
2022/03/26 03:49:12;;;;;;;20.42;7.60;;;;;;;;;;5051446;28;20048;-58
2022/03/26 03:51:38;;;;;;;19.30;7.47;;;;;;;;;;5103372;28;20052;-59
2022/03/26 03:54:06;;;;;;;21.10;7.60;;;;;;;;;;5081222;28;20101;-61
2022/03/26 03:56:32;;;;;;;18.65;7.95;;;;;;;;;;5087352;28;20112;-59
2022/03/26 03:58:59;;;;;;;21.35;7.75;;;;;;;;;;5081056;28;20083;-59
2022/03/26 04:01:27;;;;;;;20.17;7.50;;;;;;;;;;5086583;28;20048;-59
2022/03/26 04:03:55;;;;;;;18.65;7.30;;;;;;;;;;5081550;28;20059;-59
2022/03/26 04:06:21;;;;;;;21.08;8.07;;;;;;;;;;5086953;28;20044;-62
2022/03/26 04:08:48;;;;;;;22.00;8.20;;;;;;;;;;5085433;28;20040;-60
2022/03/26 04:11:22;;;;;;;22.08;7.93;;;;;;;;;;5084374;28;20063;-59
2022/03/26 04:13:53;;;;;;;17.50;8.20;;;;;;;;;;5087725;28;20074;-61
2022/03/26 04:16:19;;;;;;;20.05;7.93;;;;;;;;;;5081509;28;20071;-60
2022/03/26 04:18:46;;;;;;;20.92;8.25;;;;;;;;;;5087392;28;20139;-61
2022/03/26 04:21:16;;;;;;;22.67;8.48;;;;;;;;;;5081602;28;20110;-60
2022/03/26 04:23:44;;;;;;;18.75;7.80;;;;;;;;;;5104595;28;20048;-59
2022/03/26 04:26:11;;;;;;;27.70;8.80;;;;;;;;;;5081752;28;20060;-59
2022/03/26 04:28:37;;;;;;;19.30;7.88;;;;;;;;;;5087258;28;20066;-60
2022/03/26 04:31:04;;;;;;;17.30;6.70;;;;;;;;;;5081186;28;20058;-59
2022/03/26 04:33:31;;;;;;;17.63;7.28;;;;;;;;;;5086477;28;20131;-63
2022/03/26 04:35:57;;;;;;;18.45;7.43;;;;;;;;;;5081311;28;20048;-61
2022/03/26 04:38:24;;;;;;;18.30;7.45;;;;;;;;;;5086466;28;20094;-64
2022/03/26 04:40:52;;;;;;;19.95;7.70;;;;;;;;;;5064231;28;20052;-65
2022/03/26 04:43:20;;;;;;;21.35;7.70;;;;;;;;;;5088528;28;20047;-62
2022/03/26 04:45:47;;;;;;;21.00;8.20;;;;;;;;;;5081306;28;20143;-64
2022/03/26 04:48:13;;;;;;;20.38;7.63;;;;;;;;;;5086724;28;20048;-60
2022/03/26 04:50:40;;;;;;;19.77;7.25;;;;;;;;;;5082552;28;20063;-61
2022/03/26 04:53:07;;;;;;;21.58;7.95;;;;;;;;;;5088271;28;20056;-60
2022/03/26 04:55:33;;;;;;;20.35;7.75;;;;;;;;;;5089138;28;20044;-60
2022/03/26 04:58:01;;;;;;;22.77;8.45;;;;;;;;;;5082025;28;20059;-59
2022/03/26 05:00:29;;;;;;;22.77;7.70;;;;;;;;;;5086350;28;20063;-59
2022/03/26 05:02:56;;;;;;;15.30;6.90;;;;;;;;;;5080961;28;20291;-62
2022/03/26 05:05:22;;;;;;;22.23;7.60;;;;;;;;;;5086058;28;20048;-58
2022/03/26 05:07:51;;;;;;;20.65;7.13;;;;;;;;;;5080510;28;20071;-61
2022/03/26 05:10:19;;;;;;;19.55;8.05;;;;;;;;;;5086379;28;20060;-60
2022/03/26 05:12:47;;;;;;;21.60;8.32;;;;;;;;;;5081384;28;20048;-59
2022/03/26 05:15:15;;;;;;;16.90;7.95;;;;;;;;;;5086511;28;20106;-59
2022/03/26 05:17:42;;;;;;;21.17;7.60;;;;;;;;;;5081814;28;20151;-60
2022/03/26 05:20:11;;;;;;;20.02;7.70;;;;;;;;;;5090212;28;20056;-58
2022/03/26 05:22:38;;;;;;;18.42;7.03;;;;;;;;;;5083845;28;20113;-65
2022/03/26 05:25:06;;;;;;;20.13;8.02;;;;;;;;;;5089358;28;20120;-65
2022/03/26 05:27:33;;;;;;;17.80;7.80;;;;;;;;;;5084244;28;20101;-61
2022/03/26 05:30:01;;;;;;;22.13;8.02;;;;;;;;;;5089430;28;20044;-61
2022/03/26 05:32:29;;;;;;;20.17;7.43;;;;;;;;;;5083500;28;20059;-61
2022/03/26 05:34:55;;;;;;;20.25;8.15;;;;;;;;;;5089583;28;20052;-59
2022/03/26 05:37:22;;;;;;;19.33;8.10;;;;;;;;;;5083591;28;20044;-59
2022/03/26 05:39:49;;;;;;;21.13;7.90;;;;;;;;;;5089095;28;20093;-62
2022/03/26 05:42:17;;;;;;;17.92;7.55;;;;;;;;;;5089577;28;20062;-59
2022/03/26 05:44:44;;;;;;;20.13;8.27;;;;;;;;;;5084013;28;20052;-62
2022/03/26 05:47:10;;;;;;;25.15;8.00;;;;;;;;;;5089513;28;20097;-63
2022/03/26 05:49:39;;;;;;;20.30;7.93;;;;;;;;;;5084163;28;20052;-59
2022/03/26 05:52:06;;;;;;;21.48;7.75;;;;;;;;;;5090631;28;20069;-62
2022/03/26 05:54:32;;;;;;;19.85;8.35;;;;;;;;;;5084042;28;20040;-62
2022/03/26 05:56:59;;;;;;;21.20;7.63;;;;;;;;;;5089051;28;20067;-60
2022/03/26 05:59:28;;;;;;;25.45;8.48;;;;;;;;;;5082880;28;20056;-63
2022/03/26 06:01:55;;;;;;;27.70;8.65;;;;;;;;;;5089262;28;20139;-61
2022/03/26 06:04:22;;;;;;;20.33;8.05;;;;;;;;;;5083582;28;20056;-58
2022/03/26 06:06:50;;;;;;;17.80;7.25;;;;;;;;;;5089442;28;20063;-63
2022/03/26 06:09:19;;;;;;;24.55;7.80;;;;;;;;;;5083321;28;20044;-63
2022/03/26 06:11:46;;;;;;;23.25;8.30;;;;;;;;;;5087724;28;20056;-61
2022/03/26 06:14:12;;;;;;;31.63;8.32;;;;;;;;;;5083079;28;20040;-62
2022/03/26 06:16:39;;;;;;;20.35;7.47;;;;;;;;;;5089128;28;20052;-63
2022/03/26 06:19:06;;;;;;;19.83;7.68;;;;;;;;;;5083768;28;20048;-61
2022/03/26 06:21:34;;;;;;;23.73;8.65;;;;;;;;;;5089717;28;20062;-62
2022/03/26 06:24:02;;;;;;;20.90;8.00;;;;;;;;;;5089696;28;20135;-62
2022/03/26 06:26:29;;;;;;;20.98;7.55;;;;;;;;;;5086468;28;20139;-58
2022/03/26 06:28:56;;;;;;;20.75;8.30;;;;;;;;;;5088294;28;20050;-59
2022/03/26 06:31:23;;;;;;;24.33;8.80;;;;;;;;;;5082823;28;20131;-62
2022/03/26 06:33:51;;;;;;;28.52;9.57;;;;;;;;;;5088921;28;20063;-58
2022/03/26 06:36:18;;;;;;;26.08;9.07;;;;;;;;;;5083394;28;20052;-61
2022/03/26 06:38:45;;;;;;;21.88;8.45;;;;;;;;;;5088461;28;20056;-62
2022/03/26 06:41:15;;;;;;;20.33;8.32;;;;;;;;;;5083175;28;20059;-61
2022/03/26 06:43:43;;;;;;;29.38;10.05;;;;;;;;;;5088447;28;20074;-58
2022/03/26 06:46:10;;;;;;;20.83;8.57;;;;;;;;;;5082860;28;20131;-63
2022/03/26 06:48:37;;;;;;;21.38;8.05;;;;;;;;;;5089307;28;20056;-61
2022/03/26 06:51:04;;;;;;;21.77;8.57;;;;;;;;;;5081747;28;20052;-63
2022/03/26 06:53:34;;;;;;;29.17;10.57;;;;;;;;;;5087446;28;20098;-63
2022/03/26 06:56:01;;;;;;;28.45;10.98;;;;;;;;;;5086326;28;20060;-60
2022/03/26 06:58:29;;;;;;;28.13;10.50;;;;;;;;;;5099184;28;20062;-62
2022/03/26 07:00:58;;;;;;;33.03;14.02;;;;;;;;;;5079286;28;20120;-61
2022/03/26 07:03:25;;;;;;;28.73;11.00;;;;;;;;;;5086973;28;20144;-59
2022/03/26 07:05:51;;;;;;;33.70;12.60;;;;;;;;;;5072684;28;20133;-58
2022/03/26 07:08:18;;;;;;;31.52;11.93;;;;;;;;;;5066757;28;20060;-62
2022/03/26 07:10:46;;;;;;;41.55;14.25;;;;;;;;;;5066711;28;20060;-61
2022/03/26 07:13:13;;;;;;;48.65;15.93;;;;;;;;;;5060572;28;20063;-58
2022/03/26 07:15:41;;;;;;;37.88;14.23;;;;;;;;;;5066208;28;20114;-59
2022/03/26 07:18:09;;;;;;;45.92;14.70;;;;;;;;;;5061992;28;20045;-60
2022/03/26 07:20:36;;;;;;;34.63;12.13;;;;;;;;;;5067299;28;20068;-59
2022/03/26 07:23:02;;;;;;;24.73;9.43;;;;;;;;;;5061471;28;20048;-58
2022/03/26 07:25:30;;;;;;;28.55;9.73;;;;;;;;;;5067691;28;20086;-63
2022/03/26 07:27:57;;;;;;;23.13;8.68;;;;;;;;;;5061438;28;20049;-63
2022/03/26 07:30:24;;;;;;;31.77;11.07;;;;;;;;;;5068091;28;20056;-60
2022/03/26 07:32:52;;;;;;;31.27;11.13;;;;;;;;;;5061743;28;20060;-61
2022/03/26 07:35:19;;;;;;;42.53;14.65;;;;;;;;;;5067896;28;20060;-59
2022/03/26 07:37:45;;;;;;;26.27;10.43;;;;;;;;;;5061749;28;20067;-59
2022/03/26 07:40:13;;;;;;;30.92;10.95;;;;;;;;;;5066531;28;20102;-66
2022/03/26 07:42:40;;;;;;;53.38;16.60;;;;;;;;;;5059379;28;20080;-64
2022/03/26 07:45:07;;;;;;;39.17;13.20;;;;;;;;;;5067171;28;20210;-61
2022/03/26 07:47:35;;;;;;;25.63;9.60;;;;;;;;;;5059833;28;20052;-60
2022/03/26 07:50:06;;;;;;;40.58;14.52;;;;;;;;;;5068622;28;20056;-58
2022/03/26 07:52:34;;;;;;;44.97;15.05;;;;;;;;;;5063993;28;20056;-66
2022/03/26 07:55:01;;;;;;;36.38;14.38;;;;;;;;;;5065514;28;20052;-62
2022/03/26 07:57:28;;;;;;;46.38;14.70;;;;;;;;;;5066759;28;20170;-60
2022/03/26 07:59:55;;;;;;;43.22;16.67;;;;;;;;;;5051641;28;20063;-58
2022/03/26 08:02:23;;;;;;;46.80;16.88;;;;;;;;;;5065433;28;20056;-58
2022/03/26 08:04:49;;;;;;;48.22;16.63;;;;;;;;;;5059022;28;20071;-61
2022/03/26 08:07:16;;;;;;;48.85;16.08;;;;;;;;;;5058273;28;20051;-62
2022/03/26 08:09:44;;;;;;;49.05;16.38;;;;;;;;;;5076160;28;20052;-60
2022/03/26 08:12:11;;;;;;;47.58;16.88;;;;;;;;;;5065409;28;20055;-61
2022/03/26 08:14:37;;;;;;;39.67;15.65;;;;;;;;;;5059335;28;20098;-59
2022/03/26 08:17:04;;;;;;;44.65;16.05;;;;;;;;;;5065876;28;20048;-61
2022/03/26 08:19:34;;;;;;;52.38;18.30;;;;;;;;;;5059810;28;20052;-66
2022/03/26 08:22:01;;;;;;;50.88;15.07;;;;;;;;;;5066072;28;20139;-65
2022/03/26 08:24:27;;;;;;;47.20;15.77;;;;;;;;;;5059310;28;20048;-62
2022/03/26 08:26:55;;;;;;;37.30;12.35;;;;;;;;;;5065710;28;20052;-60
2022/03/26 08:29:22;;;;;;;47.77;15.13;;;;;;;;;;5060272;28;20064;-63
2022/03/26 08:31:48;;;;;;;39.05;13.07;;;;;;;;;;5065843;28;20298;-60
2022/03/26 08:34:15;;;;;;;47.47;14.93;;;;;;;;;;5059731;28;20173;-60
2022/03/26 08:36:42;;;;;;;35.65;13.65;;;;;;;;;;5065563;28;20057;-60
2022/03/26 08:39:08;;;;;;;42.67;14.50;;;;;;;;;;5065477;28;20048;-59
2022/03/26 08:41:35;;;;;;;30.13;10.43;;;;;;;;;;5059278;28;20045;-59
2022/03/26 08:44:03;;;;;;;39.47;11.68;;;;;;;;;;5083632;28;20079;-61
2022/03/26 08:46:30;;;;;;;32.33;10.33;;;;;;;;;;5080286;28;20049;-59
2022/03/26 08:48:58;;;;;;;32.70;11.77;;;;;;;;;;5083549;28;20287;-63
2022/03/26 08:51:25;;;;;;;36.80;10.82;;;;;;;;;;5079071;28;20048;-63
2022/03/26 08:53:51;;;;;;;37.17;10.50;;;;;;;;;;5089568;28;20070;-62
2022/03/26 08:56:18;;;;;;;34.38;11.85;;;;;;;;;;5084447;28;20047;-62
2022/03/26 08:58:44;;;;;;;35.28;11.93;;;;;;;;;;5088700;28;20054;-62
2022/03/26 09:01:13;;;;;;;37.55;11.35;;;;;;;;;;5099557;27;20056;-60
2022/03/26 09:03:40;;;;;;;27.88;10.63;;;;;;;;;;5089520;28;20072;-62
2022/03/26 09:06:08;;;;;;;30.23;9.88;;;;;;;;;;5081768;28;20083;-64
2022/03/26 09:08:34;;;;;;;29.13;10.07;;;;;;;;;;5089379;28;20063;-60
2022/03/26 09:11:02;;;;;;;34.22;10.85;;;;;;;;;;5080416;28;20151;-58
2022/03/26 09:13:29;;;;;;;27.90;9.80;;;;;;;;;;5087676;28;20071;-61
2022/03/26 09:15:55;;;;;;;27.27;8.80;;;;;;;;;;5083443;28;20146;-61
2022/03/26 09:18:24;;;;;;;24.73;8.98;;;;;;;;;;5090509;28;20052;-59
2022/03/26 09:20:51;;;;;;;24.02;8.13;;;;;;;;;;5090675;28;20051;-60
2022/03/26 09:23:18;;;;;;;20.17;7.82;;;;;;;;;;5100449;28;20151;-64
2022/03/26 09:25:45;;;;;;;22.38;7.60;;;;;;;;;;5089553;28;20074;-60
2022/03/26 09:28:11;;;;;;;28.67;8.23;;;;;;;;;;5082960;28;20044;-62
2022/03/26 09:30:38;;;;;;;24.52;7.53;;;;;;;;;;5106376;28;20048;-60
2022/03/26 09:33:06;;;;;;;18.75;7.30;;;;;;;;;;5082470;28;20059;-59
2022/03/26 09:35:34;;;;;;;19.05;7.40;;;;;;;;;;5089339;28;20120;-60
2022/03/26 09:38:00;;;;;;;18.60;7.03;;;;;;;;;;5082855;28;20135;-59
2022/03/26 09:40:27;;;;;;;15.35;6.53;;;;;;;;;;5089094;28;20040;-59
2022/03/26 09:42:54;;;;;;;19.42;7.10;;;;;;;;;;5082460;28;20079;-60
2022/03/26 09:45:22;;;;;;;14.80;6.45;;;;;;;;;;5089028;28;20169;-64
2022/03/26 09:47:49;;;;;;;20.92;8.48;;;;;;;;;;5083049;28;20047;-64
2022/03/26 09:50:17;;;;;;;16.65;7.43;;;;;;;;;;5088153;28;20052;-64
2022/03/26 09:52:45;;;;;;;21.27;7.47;;;;;;;;;;5081327;28;20052;-60
2022/03/26 09:55:12;;;;;;;16.27;7.15;;;;;;;;;;5086403;28;20048;-61
2022/03/26 09:57:39;;;;;;;21.95;7.20;;;;;;;;;;5082586;28;20047;-62
2022/03/26 10:00:08;;;;;;;20.33;8.00;;;;;;;;;;5088018;28;20056;-64
2022/03/26 10:02:34;;;;;;;17.30;7.38;;;;;;;;;;5085183;28;20143;-61
2022/03/26 10:05:01;;;;;;;24.30;7.53;;;;;;;;;;5079278;28;20056;-60
2022/03/26 10:07:29;;;;;;;27.55;9.43;;;;;;;;;;5089071;28;20099;-61
2022/03/26 10:09:57;;;;;;;21.25;6.57;;;;;;;;;;5100439;28;20107;-65
2022/03/26 10:12:26;;;;;;;21.85;8.68;;;;;;;;;;5109719;28;20047;-66
2022/03/26 10:14:54;;;;;;;21.23;9.40;;;;;;;;;;5088665;28;20060;-62
2022/03/26 10:17:24;;;;;;;22.52;8.80;;;;;;;;;;5088423;28;20054;-64
2022/03/26 10:19:52;;;;;;;24.95;7.78;;;;;;;;;;5081540;28;20056;-62
2022/03/26 10:22:23;;;;;;;19.55;8.15;;;;;;;;;;5086496;28;20052;-63
2022/03/26 10:24:50;;;;;;;22.90;8.32;;;;;;;;;;5081123;28;20094;-64
2022/03/26 10:27:18;;;;;;;20.33;8.40;;;;;;;;;;5088553;28;20048;-61
2022/03/26 10:29:50;;;;;;;20.63;8.63;;;;;;;;;;5081544;28;20040;-63
2022/03/26 10:32:41;;;;;;;26.42;9.95;;;;;;;;;;5087471;28;20298;-61
2022/03/26 10:35:21;;;;;;;32.67;10.90;;;;;;;;;;5082957;28;20058;-60
2022/03/26 10:37:51;;;;;;;23.13;8.85;;;;;;;;;;5055554;28;20113;-62
2022/03/26 10:40:22;;;;;;;24.05;9.15;;;;;;;;;;5061205;28;20110;-61
2022/03/26 10:43:00;;;;;;;25.33;10.40;;;;;;;;;;5066696;28;20061;-63
2022/03/26 10:45:28;;;;;;;19.27;7.60;;;;;;;;;;5065802;28;20052;-63
2022/03/26 10:47:55;;;;;;;21.92;8.23;;;;;;;;;;5096043;28;20055;-66
2022/03/26 10:50:23;;;;;;;19.50;7.50;;;;;;;;;;5074740;28;20103;-62
2022/03/26 10:52:49;;;;;;;16.30;7.30;;;;;;;;;;5066369;28;20060;-63
2022/03/26 10:55:17;;;;;;;19.48;7.60;;;;;;;;;;5061104;28;20098;-60
2022/03/26 10:57:45;;;;;;;17.98;7.03;;;;;;;;;;5073500;28;20056;-65
2022/03/26 11:00:15;;;;;;;21.20;8.95;;;;;;;;;;5073387;28;20118;-64
2022/03/26 11:02:42;;;;;;;25.70;9.50;;;;;;;;;;5066400;28;20140;-62
2022/03/26 11:05:09;;;;;;;25.10;10.85;;;;;;;;;;5060738;28;20048;-61
2022/03/26 11:07:37;;;;;;;22.88;8.60;;;;;;;;;;5066657;28;20056;-63
2022/03/26 11:10:05;;;;;;;19.43;8.50;;;;;;;;;;5067218;28;20082;-64
2022/03/26 11:12:32;;;;;;;23.88;8.70;;;;;;;;;;5060360;28;20056;-61
2022/03/26 11:15:00;;;;;;;17.40;6.88;;;;;;;;;;5065869;28;20056;-66
2022/03/26 11:17:34;;;;;;;21.63;8.33;;;;;;;;;;5061067;28;20052;-64
2022/03/26 11:20:15;;;;;;;22.40;8.07;;;;;;;;;;5069073;28;20310;-61
2022/03/26 11:22:50;;;;;;;20.80;7.18;;;;;;;;;;5079702;28;20056;-62
2022/03/26 11:25:34;;;;;;;19.98;8.50;;;;;;;;;;5083034;28;20048;-66
2022/03/26 11:28:07;;;;;;;20.38;7.35;;;;;;;;;;5028298;28;20052;-61
2022/03/26 11:30:42;;;;;;;18.38;7.93;;;;;;;;;;5068294;28;20080;-64
2022/03/26 11:33:11;;;;;;;22.95;8.75;;;;;;;;;;5079483;28;20056;-63
2022/03/26 11:35:50;;;;;;;20.48;7.78;;;;;;;;;;5064963;28;20049;-60
2022/03/26 11:38:16;;;;;;;18.73;7.15;;;;;;;;;;5059605;28;20059;-62
2022/03/26 11:40:44;;;;;;;20.27;7.53;;;;;;;;;;5065803;28;20064;-64
2022/03/26 11:43:13;;;;;;;21.20;7.65;;;;;;;;;;5059762;28;20121;-63
2022/03/26 11:51:22;;;;;;;20.80;6.57;;;;;;;;;;5063433;28;20159;-68
2022/03/26 11:53:51;;;;;;;19.80;6.33;;;;;;;;;;5057979;28;20109;-66
2022/03/26 11:56:21;;;;;;;16.42;6.35;;;;;;;;;;5082073;28;20048;-62
2022/03/26 11:58:51;;;;;;;17.20;6.95;;;;;;;;;;5059468;28;20118;-61
2022/03/26 12:01:20;;;;;;;20.33;6.45;;;;;;;;;;5063861;28;20091;-61
2022/03/26 12:03:48;;;;;;;;;;;;;;;;;;5057996;28;20056;-65
2022/03/26 12:06:39;;;;;;;22.10;8.02;;;;;;;;;;5065430;28;19924;-65
2022/03/26 12:09:05;;;;;;;29.58;10.75;;;;;;;;;;5059522;28;20048;-65
2022/03/26 12:11:33;;;;;;;33.10;9.43;;;;;;;;;;5065293;28;20048;-66
2022/03/26 12:14:01;;;;;;;26.58;10.30;;;;;;;;;;5075303;28;20056;-62
2022/03/26 12:16:47;;;;;;;24.20;9.27;;;;;;;;;;5080728;28;20128;-61
2022/03/26 12:19:35;;;;;;;32.25;10.35;;;;;;;;;;5055219;28;20052;-62
2022/03/26 12:22:01;;;;;;;;;;;;;;;;;;5066003;28;20060;-66
2022/03/26 12:24:30;;;;;;;23.77;9.40;;;;;;;;;;5059161;28;19980;-67
2022/03/26 12:26:57;;;;;;;27.02;8.88;;;;;;;;;;5066314;28;20065;-61
2022/03/26 12:29:24;;;;;;;24.40;9.32;;;;;;;;;;5078229;28;20048;-67
2022/03/26 12:31:51;;;;;;;24.98;8.55;;;;;;;;;;5085884;28;20048;-63
2022/03/26 12:34:18;;;;;;;21.73;7.60;;;;;;;;;;5062444;28;20053;-65
2022/03/26 12:36:44;;;;;;;23.95;8.57;;;;;;;;;;5068747;28;20078;-63
2022/03/26 12:39:12;;;;;;;28.00;7.90;;;;;;;;;;5062587;28;20044;-64
2022/03/26 12:41:40;;;;;;;23.13;7.97;;;;;;;;;;5086289;28;20059;-60
2022/03/26 12:44:06;;;;;;;19.27;7.88;;;;;;;;;;5060126;28;20048;-67
2022/03/26 12:46:34;;;;;;;22.00;7.97;;;;;;;;;;5069321;28;20053;-64
2022/03/26 12:49:01;;;;;;;18.02;7.32;;;;;;;;;;5066930;28;20165;-65
2022/03/26 12:51:28;;;;;;;24.30;8.52;;;;;;;;;;5065544;28;20072;-65
2022/03/26 14:23:32;;;;;;;20.42;6.65;;;;;;;;;;5315656;22;20096;-63
2022/03/26 14:25:58;;;;;;;17.85;6.68;;;;;;;;;;5068551;28;20055;-61
2022/03/26 14:28:25;;;;;;;17.50;5.95;;;;;;;;;;5072842;28;20166;-62
2022/03/26 14:30:52;;;;;;;18.63;6.57;;;;;;;;;;5076509;28;20056;-64
2022/03/26 14:33:18;;;;;;;17.23;6.00;;;;;;;;;;5078673;28;20048;-62
2022/03/26 14:35:47;;;;;;;22.00;7.00;;;;;;;;;;5057731;28;20060;-65
2022/03/26 14:38:14;;;;;;;13.55;6.13;;;;;;;;;;5063372;28;20044;-67
2022/03/26 14:40:42;;;;;;;19.20;5.50;;;;;;;;;;5067982;28;20085;-66
2022/03/26 14:43:09;;;;;;;22.35;6.55;;;;;;;;;;5068426;28;20079;-66
2022/03/26 14:45:36;;;;;;;12.77;5.10;;;;;;;;;;5065805;28;20063;-64
2022/03/26 14:48:03;;;;;;;18.88;6.78;;;;;;;;;;5057724;28;20082;-69
2022/03/26 14:50:30;;;;;;;19.92;6.30;;;;;;;;;;5045735;28;20055;-65
2022/03/26 14:52:57;;;;;;;14.82;6.22;;;;;;;;;;5094315;28;20101;-66
2022/03/26 14:55:24;;;;;;;15.27;6.53;;;;;;;;;;5065402;28;20135;-63
2022/03/26 14:57:54;;;;;;;13.05;4.95;;;;;;;;;;5069614;28;20056;-68
2022/03/26 15:00:21;;;;;;;13.48;4.78;;;;;;;;;;5050307;28;20044;-67
2022/03/26 15:02:48;;;;;;;15.73;5.25;;;;;;;;;;5047722;28;20055;-69
2022/03/26 15:05:14;;;;;;;18.10;6.35;;;;;;;;;;5040832;28;20067;-64
2022/03/26 15:07:41;;;;;;;15.98;6.18;;;;;;;;;;5050177;28;20060;-71
2022/03/26 15:10:09;;;;;;;19.95;6.43;;;;;;;;;;5048478;28;20052;-68
2022/03/26 15:12:36;;;;;;;22.70;9.07;;;;;;;;;;5046915;28;20044;-71
2022/03/26 15:15:04;;;;;;;15.10;6.53;;;;;;;;;;5049355;28;20059;-63
2022/03/26 15:17:30;;;;;;;;;;;;;;;;;;5043824;28;20063;-65
2022/03/26 15:19:57;;;;;;;23.77;8.55;;;;;;;;;;5051138;28;19921;-62
2022/03/26 15:22:23;;;;;;;21.73;8.15;;;;;;;;;;5045715;28;20076;-65
2022/03/26 15:24:52;;;;;;;;;;;;;;;;;;5051066;28;20052;-71
2022/03/26 15:27:18;;;;;;;21.25;7.75;;;;;;;;;;5037905;28;19951;-65
2022/03/26 15:29:47;;;;;;;20.95;7.63;;;;;;;;;;5050517;28;20139;-66
2022/03/26 15:32:15;;;;;;;24.15;8.93;;;;;;;;;;5062073;28;20057;-71
2022/03/26 15:34:41;;;;;;;;;;;;;;;;;;5050301;28;20060;-65
2022/03/26 15:37:08;;;;;;;16.73;7.47;;;;;;;;;;5046099;28;19928;-66
2022/03/26 15:39:37;;;;;;;16.58;7.22;;;;;;;;;;5081515;28;20056;-66
2022/03/26 15:42:04;;;;;;;17.95;7.10;;;;;;;;;;5043996;28;20051;-66
2022/03/26 15:44:31;;;;;;;15.35;6.22;;;;;;;;;;5069306;28;20105;-70
2022/03/26 15:46:58;;;;;;;16.35;7.60;;;;;;;;;;5044992;28;20131;-63
2022/03/26 15:49:29;;;;;;;17.48;6.68;;;;;;;;;;5048955;28;20052;-69
2022/03/26 15:51:56;;;;;;;16.30;6.47;;;;;;;;;;5049525;28;20043;-64
2022/03/26 15:54:22;;;;;;;18.95;8.63;;;;;;;;;;5044234;28;20170;-72
2022/03/26 15:56:49;;;;;;;17.42;7.53;;;;;;;;;;5049020;28;20052;-70
2022/03/26 15:59:16;;;;;;;14.25;6.57;;;;;;;;;;5076698;28;20115;-68
2022/03/26 16:01:42;;;;;;;21.75;8.95;;;;;;;;;;5049009;28;20048;-66
2022/03/26 16:04:09;;;;;;;19.67;9.57;;;;;;;;;;5042959;28;20036;-70
2022/03/26 16:06:37;;;;;;;17.52;7.72;;;;;;;;;;5045829;28;20082;-67
2022/03/26 16:09:03;;;;;;;21.77;9.77;;;;;;;;;;5044993;28;20060;-66